createdAt,value
2023-04-12T00:01:36.601Z,95.53
2023-04-12T00:04:04.835Z,97.49
2023-04-12T00:06:33.286Z,97.91
2023-04-12T00:09:01.352Z,98.45
2023-04-12T00:11:32.684Z,100.00
2023-04-12T00:14:02.056Z,100.00
2023-04-12T00:16:29.769Z,100.00
2023-04-12T00:18:58.226Z,100.00
2023-04-12T00:21:28.747Z,99.44
2023-04-12T00:23:56.893Z,100.00
2023-04-12T00:26:25.352Z,99.85
2023-04-12T00:28:53.097Z,99.52
2023-04-12T00:31:24.607Z,99.10
2023-04-12T00:33:52.258Z,98.49
2023-04-12T00:36:20.439Z,98.73
2023-04-12T00:38:50.344Z,98.36
2023-04-12T00:41:18.638Z,99.51
2023-04-12T00:43:49.805Z,100.00
2023-04-12T00:46:19.835Z,99.87
2023-04-12T00:48:50.243Z,99.48
2023-04-12T00:51:18.450Z,99.86
2023-04-12T00:53:46.239Z,99.86
2023-04-12T00:56:14.300Z,99.22
2023-04-12T00:58:42.033Z,99.83
2023-04-12T01:01:10.509Z,99.78
2023-04-12T01:03:42.909Z,99.14
2023-04-12T01:06:15.139Z,99.09
2023-04-12T01:08:55.096Z,100.00
2023-04-12T01:11:31.736Z,100.00
2023-04-12T01:14:06.509Z,100.00
2023-04-12T01:16:40.677Z,99.70
2023-04-12T01:19:35.226Z,98.85
2023-04-12T01:22:13.347Z,98.42
2023-04-12T01:24:52.972Z,98.05
2023-04-12T01:27:35.658Z,98.86
2023-04-12T01:30:05.695Z,98.53
2023-04-12T01:32:35.482Z,98.48
2023-04-12T01:35:05.440Z,98.75
2023-04-12T01:37:33.403Z,98.33
2023-04-12T01:40:01.814Z,96.80
2023-04-12T01:42:31.177Z,98.14
2023-04-12T01:44:59.236Z,96.57
2023-04-12T01:47:27.181Z,95.93
2023-04-12T01:50:00.494Z,95.43
2023-04-12T01:52:33.966Z,95.28
2023-04-12T01:55:05.481Z,94.84
2023-04-12T01:57:37.218Z,94.44
2023-04-12T02:00:07.083Z,94.54
2023-04-12T02:02:36.657Z,94.51
2023-04-12T02:05:07.969Z,94.27
2023-04-12T02:07:36.375Z,93.35
2023-04-12T02:10:04.400Z,93.55
2023-04-12T02:12:32.072Z,95.00
2023-04-12T02:15:01.076Z,94.74
2023-04-12T02:17:29.529Z,94.33
2023-04-12T02:19:57.675Z,93.60
2023-04-12T02:22:27.991Z,93.85
2023-04-12T02:24:59.847Z,93.53
2023-04-12T02:27:30.215Z,93.34
2023-04-12T02:29:58.549Z,93.01
2023-04-12T02:32:27.582Z,91.75
2023-04-12T02:34:57.887Z,91.43
2023-04-12T02:37:27.454Z,91.19
2023-04-12T02:39:57.011Z,92.60
2023-04-12T02:42:24.819Z,91.09
2023-04-12T02:44:52.902Z,91.08
2023-04-12T02:47:20.532Z,91.48
2023-04-12T02:49:49.507Z,90.44
2023-04-12T02:52:18.834Z,90.57
2023-04-12T02:54:46.596Z,90.79
2023-04-12T02:57:16.103Z,91.09
2023-04-12T02:59:43.854Z,90.97
2023-04-12T03:02:11.961Z,91.73
2023-04-12T03:04:40.007Z,90.83
2023-04-12T03:07:09.014Z,91.35
2023-04-12T03:09:38.559Z,91.33
2023-04-12T03:12:06.820Z,91.35
2023-04-12T03:14:34.394Z,90.83
2023-04-12T03:17:02.167Z,91.12
2023-04-12T03:19:32.880Z,90.40
2023-04-12T03:22:03.794Z,91.29
2023-04-12T03:24:34.765Z,90.92
2023-04-12T03:27:03.741Z,91.90
2023-04-12T03:29:31.588Z,91.87
2023-04-12T03:32:00.740Z,92.78
2023-04-12T03:34:32.073Z,92.53
2023-04-12T03:36:59.866Z,91.87
2023-04-12T03:39:27.502Z,91.66
2023-04-12T03:41:56.486Z,91.71
2023-04-12T03:44:26.061Z,91.74
2023-04-12T03:46:54.106Z,92.44
2023-04-12T03:49:22.005Z,92.16
2023-04-12T03:51:50.653Z,91.18
2023-04-12T03:54:18.335Z,91.01
2023-04-12T03:56:46.421Z,91.27
2023-04-12T03:59:15.748Z,91.68
2023-04-12T04:01:43.805Z,92.77
2023-04-12T04:04:11.827Z,91.41
2023-04-12T04:06:40.020Z,90.98
2023-04-12T04:09:08.094Z,90.84
2023-04-12T04:11:37.726Z,90.67
2023-04-12T04:14:05.376Z,90.56
2023-04-12T04:16:34.385Z,90.24
2023-04-12T04:19:02.111Z,89.32
2023-04-12T04:21:30.418Z,88.07
2023-04-12T04:24:00.985Z,87.45
2023-04-12T04:26:33.161Z,87.05
2023-04-12T04:29:03.178Z,87.49
2023-04-12T04:31:34.571Z,87.44
2023-04-12T04:34:05.383Z,86.62
2023-04-12T04:36:34.972Z,87.55
2023-04-12T04:39:03.524Z,87.71
2023-04-12T04:41:34.422Z,87.45
2023-04-12T04:44:04.716Z,87.75
2023-04-12T04:46:32.514Z,88.43
2023-04-12T04:49:01.156Z,87.63
2023-04-12T04:51:30.301Z,88.52
2023-04-12T04:53:58.177Z,88.31
2023-04-12T04:56:26.241Z,88.08
2023-04-12T04:58:56.285Z,87.67
2023-04-12T05:01:26.193Z,88.21
2023-04-12T05:03:55.575Z,88.58
2023-04-12T05:06:24.076Z,89.37
2023-04-12T05:08:54.363Z,89.17
2023-04-12T05:11:31.177Z,88.46
2023-04-12T05:13:58.855Z,86.92
2023-04-12T05:16:26.535Z,87.37
2023-04-12T05:18:54.257Z,86.30
2023-04-12T05:21:24.112Z,85.21
2023-04-12T05:23:52.108Z,86.21
2023-04-12T05:26:21.606Z,86.23
2023-04-12T05:28:49.276Z,86.34
2023-04-12T05:31:18.075Z,85.50
2023-04-12T05:33:45.710Z,84.36
2023-04-12T05:36:13.534Z,85.74
2023-04-12T05:38:41.614Z,85.65
2023-04-12T05:41:09.378Z,84.71
2023-04-12T05:43:38.306Z,85.21
2023-04-12T05:46:09.946Z,85.08
2023-04-12T05:48:38.456Z,85.58
2023-04-12T05:51:06.727Z,85.35
2023-04-12T05:53:34.506Z,84.63
2023-04-12T05:56:02.679Z,84.77
2023-04-12T05:58:30.902Z,85.88
2023-04-12T06:01:00.153Z,84.94
2023-04-12T06:03:30.611Z,85.39
2023-04-12T06:05:58.731Z,85.49
2023-04-12T06:08:29.358Z,86.42
2023-04-12T06:10:57.044Z,86.78
2023-04-12T06:13:24.774Z,86.46
2023-04-12T06:15:52.554Z,85.71
2023-04-12T06:18:21.704Z,85.03
2023-04-12T06:20:50.933Z,84.70
2023-04-12T06:23:19.953Z,83.95
2023-04-12T06:25:48.264Z,84.50
2023-04-12T06:28:16.303Z,84.06
2023-04-12T06:30:43.991Z,83.54
2023-04-12T06:33:13.011Z,83.51
2023-04-12T06:35:42.202Z,83.62
2023-04-12T06:38:11.532Z,84.14
2023-04-12T06:40:39.209Z,83.60
2023-04-12T06:43:07.068Z,82.40
2023-04-12T06:45:34.857Z,82.49
2023-04-12T06:48:02.819Z,82.46
2023-04-12T06:50:30.679Z,82.98
2023-04-12T06:53:02.112Z,82.86
2023-04-12T06:55:29.948Z,82.31
2023-04-12T06:57:57.818Z,82.88
2023-04-12T07:00:25.946Z,82.28
2023-04-12T07:02:56.378Z,82.92
2023-04-12T07:05:24.526Z,82.84
2023-04-12T07:07:52.240Z,83.18
2023-04-12T07:10:21.308Z,83.61
2023-04-12T07:12:49.293Z,83.77
2023-04-12T07:15:17.239Z,84.68
2023-04-12T07:17:44.881Z,84.10
2023-04-12T07:20:13.191Z,84.63
2023-04-12T07:22:40.885Z,85.73
2023-04-12T07:25:10.933Z,86.39
2023-04-12T07:27:40.033Z,86.98
2023-04-12T07:30:09.090Z,87.39
2023-04-12T07:32:36.784Z,88.10
2023-04-12T07:35:04.754Z,87.98
2023-04-12T07:37:32.467Z,88.29
2023-04-12T07:40:00.391Z,88.15
2023-04-12T07:42:28.180Z,88.05
2023-04-12T07:44:58.201Z,88.05
2023-04-12T07:47:25.969Z,87.31
2023-04-12T07:49:54.693Z,87.60
2023-04-12T07:52:22.611Z,86.11
2023-04-12T07:54:50.560Z,84.11
2023-04-12T07:57:19.301Z,84.06
2023-04-12T07:59:46.971Z,84.93
2023-04-12T08:02:24.789Z,85.47
2023-04-12T08:04:52.683Z,86.54
2023-04-12T08:07:20.469Z,87.30
2023-04-12T08:09:48.098Z,86.96
2023-04-12T08:12:16.234Z,86.91
2023-04-12T08:14:43.839Z,86.84
2023-04-12T08:17:11.887Z,85.91
2023-04-12T08:19:41.091Z,84.74
2023-04-12T08:22:09.840Z,84.92
2023-04-12T08:24:38.605Z,85.98
2023-04-12T08:27:06.327Z,86.37
2023-04-12T08:29:34.834Z,85.96
2023-04-12T08:32:02.469Z,85.30
2023-04-12T08:34:33.050Z,86.48
2023-04-12T08:37:02.381Z,86.40
2023-04-12T08:39:30.031Z,87.00
2023-04-12T08:41:58.128Z,89.83
2023-04-12T08:44:36.108Z,93.50
2023-04-12T08:47:04.663Z,94.34
2023-04-12T08:49:34.244Z,96.71
2023-04-12T08:52:05.583Z,99.98
2023-04-12T08:54:33.801Z,100.00
2023-04-12T08:57:03.664Z,100.00
2023-04-12T08:59:32.348Z,100.00
2023-04-12T09:02:00.461Z,100.00
2023-04-12T09:04:28.163Z,100.00
2023-04-12T09:06:56.290Z,100.00
2023-04-12T09:09:43.118Z,100.00
2023-04-12T09:12:11.859Z,100.00
2023-04-12T09:14:44.757Z,100.00
2023-04-12T09:17:26.326Z,100.00
2023-04-12T09:19:55.860Z,100.00
2023-04-12T09:22:34.847Z,100.00
2023-04-12T09:25:04.275Z,100.00
2023-04-12T09:27:46.667Z,100.00
2023-04-12T09:30:17.089Z,100.00
2023-04-12T09:32:45.810Z,100.00
2023-04-12T09:35:13.763Z,100.00
2023-04-12T09:37:41.614Z,100.00
2023-04-12T09:40:12.139Z,100.00
2023-04-12T09:42:53.291Z,100.00
2023-04-12T09:45:23.981Z,100.00
2023-04-12T09:47:52.179Z,100.00
2023-04-12T09:50:26.464Z,100.00
2023-04-12T09:53:00.142Z,100.00
2023-04-12T09:55:31.806Z,100.00
2023-04-12T09:58:04.006Z,100.00
2023-04-12T10:00:34.206Z,100.00
2023-04-12T10:03:02.857Z,100.00
2023-04-12T10:05:31.064Z,100.00
2023-04-12T10:07:58.881Z,100.00
2023-04-12T10:10:27.187Z,100.00
2023-04-12T10:12:56.826Z,100.00
2023-04-12T10:15:25.860Z,100.00
2023-04-12T10:17:55.077Z,100.00
2023-04-12T10:20:27.109Z,100.00
2023-04-12T10:22:59.241Z,100.00
2023-04-12T10:25:31.358Z,100.00
2023-04-12T10:28:17.303Z,100.00
2023-04-12T10:30:48.002Z,100.00
2023-04-12T10:33:20.280Z,100.00
2023-04-12T10:35:54.570Z,100.00
2023-04-12T10:38:24.853Z,100.00
2023-04-12T10:41:19.511Z,100.00
2023-04-12T10:43:49.138Z,100.00
2023-04-12T10:46:53.671Z,100.00
2023-04-12T10:49:21.453Z,100.00
2023-04-12T10:52:14.893Z,100.00
2023-04-12T10:54:42.904Z,100.00
2023-04-12T10:57:42.374Z,100.00
2023-04-12T11:00:12.626Z,100.00
2023-04-12T11:03:07.499Z,100.00
2023-04-12T11:06:06.374Z,100.00
2023-04-12T11:08:41.452Z,100.00
2023-04-12T11:11:20.976Z,100.00
2023-04-12T11:13:48.846Z,100.00
2023-04-12T11:16:17.998Z,100.00
2023-04-12T11:18:47.728Z,100.00
2023-04-12T11:21:15.847Z,100.00
2023-04-12T11:23:46.478Z,100.00
2023-04-12T11:26:20.221Z,100.00
2023-04-12T11:28:52.922Z,100.00
2023-04-12T11:31:23.095Z,100.00
2023-04-12T11:33:50.930Z,100.00
2023-04-12T11:36:18.852Z,100.00
2023-04-12T11:38:50.184Z,100.00
2023-04-12T11:41:18.468Z,100.00
2023-04-12T11:43:47.220Z,100.00
2023-04-12T11:46:15.391Z,100.00
2023-04-12T11:48:46.716Z,100.00
2023-04-12T11:51:21.457Z,100.00
2023-04-12T11:53:53.649Z,100.00
2023-04-12T11:56:24.062Z,100.00
2023-04-12T11:58:52.467Z,100.00
2023-04-12T12:01:21.971Z,100.00
2023-04-12T12:03:52.159Z,100.00
2023-04-12T12:06:20.862Z,100.00
2023-04-12T12:08:52.489Z,100.00
2023-04-12T12:11:21.398Z,100.00
2023-04-12T12:13:51.533Z,100.00
2023-04-12T12:16:26.434Z,100.00
2023-04-12T12:18:56.416Z,100.00
2023-04-12T12:21:24.594Z,100.00
2023-04-12T12:23:52.265Z,100.00
2023-04-12T12:26:22.311Z,100.00
2023-04-12T12:28:52.118Z,100.00
2023-04-12T12:31:22.343Z,100.00
2023-04-12T12:33:54.284Z,100.00
2023-04-12T12:36:31.292Z,100.00
2023-04-12T12:39:06.781Z,100.00
2023-04-12T12:41:34.517Z,100.00
2023-04-12T12:44:02.621Z,100.00
2023-04-12T12:46:44.577Z,100.00
2023-04-12T12:49:19.330Z,100.00
2023-04-12T12:51:48.411Z,100.00
2023-04-12T12:54:36.021Z,100.00
2023-04-12T12:57:11.850Z,100.00
2023-04-12T12:59:41.075Z,100.00
2023-04-12T13:02:10.279Z,100.00
2023-04-12T13:05:07.070Z,100.00
2023-04-12T13:07:42.318Z,100.00
2023-04-12T13:10:11.954Z,100.00
2023-04-12T13:12:41.694Z,100.00
2023-04-12T13:17:51.416Z,100.00
2023-04-12T13:20:19.751Z,100.00
2023-04-12T13:22:49.224Z,100.00
2023-04-12T13:25:21.297Z,100.00
2023-04-12T13:27:56.602Z,100.00
2023-04-12T13:30:25.006Z,100.00
2023-04-12T13:33:06.222Z,100.00
2023-04-12T13:35:36.465Z,100.00
2023-04-12T13:38:07.521Z,100.00
2023-04-12T13:40:36.751Z,100.00
2023-04-12T13:43:07.866Z,100.00
2023-04-12T13:48:20.384Z,100.00
2023-04-12T13:50:50.532Z,100.00
2023-04-12T13:56:20.949Z,100.00
2023-04-12T14:01:38.121Z,100.00
2023-04-12T14:04:06.570Z,100.00
2023-04-12T14:06:37.003Z,100.00
2023-04-12T14:09:26.029Z,100.00
2023-04-12T14:11:58.156Z,100.00
2023-04-12T14:14:29.150Z,100.00
2023-04-12T14:17:00.024Z,100.00
2023-04-12T14:19:28.576Z,100.00
2023-04-12T14:21:56.867Z,100.00
2023-04-12T14:24:41.462Z,100.00
2023-04-12T14:27:12.731Z,100.00
2023-04-12T14:29:40.631Z,100.00
2023-04-12T14:32:10.364Z,100.00
2023-04-12T14:34:38.353Z,100.00
2023-04-12T14:37:06.419Z,100.00
2023-04-12T14:39:35.890Z,100.00
2023-04-12T14:42:06.563Z,100.00
2023-04-12T14:44:36.765Z,100.00
2023-04-12T14:47:04.699Z,100.00
2023-04-12T14:49:33.633Z,100.00
2023-04-12T14:52:01.990Z,100.00
2023-04-12T14:54:29.936Z,100.00
2023-04-12T14:56:58.212Z,100.00
2023-04-12T14:59:28.493Z,100.00
2023-04-12T15:01:56.478Z,100.00
2023-04-12T15:04:24.629Z,100.00
2023-04-12T15:06:55.579Z,100.00
2023-04-12T15:09:24.122Z,100.00
2023-04-12T15:12:00.687Z,100.00
2023-04-12T15:14:31.506Z,100.00
2023-04-12T15:17:02.480Z,100.00
2023-04-12T15:19:32.532Z,100.00
2023-04-12T15:22:02.104Z,100.00
2023-04-12T15:24:33.920Z,100.00
2023-04-12T15:27:04.973Z,100.00
2023-04-12T15:29:36.212Z,100.00
2023-04-12T15:32:05.076Z,100.00
2023-04-12T15:34:34.226Z,100.00
2023-04-12T15:37:16.973Z,100.00
2023-04-12T15:39:46.934Z,100.00
2023-04-12T15:42:15.428Z,100.00
2023-04-12T15:44:45.431Z,100.00
2023-04-12T15:47:13.706Z,100.00
2023-04-12T15:49:41.519Z,100.00
2023-04-12T15:52:10.536Z,100.00
2023-04-12T15:54:43.728Z,100.00
2023-04-12T15:57:12.165Z,100.00
2023-04-12T15:59:42.158Z,100.00
2023-04-12T16:02:11.557Z,100.00
2023-04-12T16:04:40.591Z,100.00
2023-04-12T16:07:09.023Z,100.00
2023-04-12T16:09:41.467Z,100.00
2023-04-12T16:12:09.544Z,100.00
2023-04-12T16:14:37.966Z,100.00
2023-04-12T16:17:07.244Z,100.00
2023-04-12T16:19:38.080Z,100.00
2023-04-12T16:22:06.466Z,100.00
2023-04-12T16:24:35.621Z,100.00
2023-04-12T16:27:03.446Z,100.00
2023-04-12T16:29:31.618Z,100.00
2023-04-12T16:32:03.233Z,100.00
2023-04-12T16:34:34.188Z,100.00
2023-04-12T16:37:05.253Z,100.00
2023-04-12T16:39:35.064Z,100.00
2023-04-12T16:42:06.172Z,100.00
2023-04-12T16:44:34.421Z,100.00
2023-04-12T16:47:02.558Z,100.00
2023-04-12T16:49:32.340Z,100.00
2023-04-12T16:52:03.097Z,100.00
2023-04-12T16:54:31.091Z,100.00
2023-04-12T16:56:59.881Z,100.00
2023-04-12T16:59:29.414Z,100.00
2023-04-12T17:02:00.674Z,100.00
2023-04-12T17:04:29.137Z,100.00
2023-04-12T17:06:58.270Z,100.00
2023-04-12T17:09:29.011Z,100.00
2023-04-12T17:12:00.200Z,100.00
2023-04-12T17:14:33.236Z,100.00
2023-04-12T17:17:20.762Z,100.00
2023-04-12T17:19:50.422Z,100.00
2023-04-12T17:22:19.223Z,100.00
2023-04-12T17:24:50.177Z,100.00
2023-04-12T17:27:17.991Z,100.00
2023-04-12T17:29:46.122Z,100.00
2023-04-12T17:32:15.643Z,100.00
2023-04-12T17:34:43.940Z,100.00
2023-04-12T17:37:11.651Z,100.00
2023-04-12T17:39:39.690Z,100.00
2023-04-12T17:42:08.835Z,100.00
2023-04-12T17:44:36.854Z,100.00
2023-04-12T17:47:04.890Z,100.00
2023-04-12T17:49:32.854Z,100.00
2023-04-12T17:52:02.441Z,100.00
2023-04-12T17:54:30.623Z,100.00
2023-04-12T17:56:58.747Z,100.00
2023-04-12T17:59:29.079Z,100.00
2023-04-12T18:01:57.179Z,100.00
2023-04-12T18:04:27.619Z,100.00
2023-04-12T18:06:56.371Z,100.00
2023-04-12T18:09:27.362Z,100.00
2023-04-12T18:11:57.389Z,100.00
2023-04-12T18:14:28.693Z,100.00
2023-04-12T18:16:56.443Z,100.00
2023-04-12T18:19:25.289Z,100.00
2023-04-12T18:21:53.357Z,100.00
2023-04-12T18:24:21.954Z,100.00
2023-04-12T18:26:53.681Z,100.00
2023-04-12T18:29:21.987Z,100.00
2023-04-12T18:31:53.989Z,100.00
2023-04-12T18:34:22.948Z,100.00
2023-04-12T18:36:51.150Z,100.00
2023-04-12T18:39:20.445Z,100.00
2023-04-12T18:41:50.609Z,100.00
2023-04-12T18:44:19.846Z,100.00
2023-04-12T18:46:47.656Z,100.00
2023-04-12T18:49:17.984Z,100.00
2023-04-12T18:51:45.819Z,100.00
2023-04-12T18:54:15.217Z,100.00
2023-04-12T18:56:43.317Z,100.00
2023-04-12T18:59:16.299Z,100.00
2023-04-12T19:01:44.791Z,100.00
2023-04-12T19:04:16.400Z,100.00
2023-04-12T19:06:45.921Z,100.00
2023-04-12T19:09:15.061Z,100.00
2023-04-12T19:11:42.985Z,100.00
2023-04-12T19:14:10.959Z,100.00
2023-04-12T19:16:39.149Z,100.00
2023-04-12T19:19:07.323Z,100.00
2023-04-12T19:21:35.514Z,100.00
2023-04-12T19:24:06.202Z,100.00
2023-04-12T19:26:36.536Z,100.00
2023-04-12T19:29:04.626Z,100.00
2023-04-12T19:31:35.022Z,100.00
2023-04-12T19:34:03.245Z,100.00
2023-04-12T19:36:31.086Z,100.00
2023-04-12T19:38:59.337Z,100.00
2023-04-12T19:41:29.094Z,100.00
2023-04-12T19:43:57.641Z,100.00
2023-04-12T19:46:26.371Z,100.00
2023-04-12T19:48:54.644Z,100.00
2023-04-12T19:51:22.704Z,100.00
2023-04-12T19:53:53.228Z,100.00
2023-04-12T19:56:23.467Z,100.00
2023-04-12T19:58:56.119Z,100.00
2023-04-12T20:01:26.817Z,100.00
2023-04-12T20:03:54.864Z,100.00
2023-04-12T20:06:23.551Z,100.00
2023-04-12T20:08:51.381Z,100.00
2023-04-12T20:11:20.285Z,100.00
2023-04-12T20:13:48.158Z,100.00
2023-04-12T20:16:17.589Z,100.00
2023-04-12T20:18:45.767Z,100.00
2023-04-12T20:21:14.626Z,100.00
2023-04-12T20:23:43.280Z,100.00
2023-04-12T20:26:11.146Z,100.00
2023-04-12T20:28:38.904Z,100.00
2023-04-12T20:31:08.411Z,100.00
2023-04-12T20:33:37.822Z,100.00
2023-04-12T20:36:05.990Z,100.00
2023-04-12T20:38:35.965Z,100.00
2023-04-12T20:41:04.142Z,100.00
2023-04-12T20:43:36.978Z,100.00
2023-04-12T20:46:09.750Z,100.00
2023-04-12T20:48:38.893Z,100.00
2023-04-12T20:51:06.772Z,100.00
2023-04-12T20:53:34.972Z,100.00
2023-04-12T20:56:06.593Z,100.00
2023-04-12T20:58:35.550Z,100.00
2023-04-12T21:01:05.247Z,100.00
2023-04-12T21:03:35.601Z,100.00
2023-04-12T21:06:06.693Z,100.00
2023-04-12T21:08:34.465Z,100.00
2023-04-12T21:11:02.665Z,100.00
2023-04-12T21:13:31.378Z,100.00
2023-04-12T21:16:01.176Z,100.00
2023-04-12T21:18:32.048Z,100.00
2023-04-12T21:21:00.688Z,100.00
2023-04-12T21:23:30.160Z,100.00
2023-04-12T21:25:57.840Z,100.00
2023-04-12T21:28:25.498Z,100.00
2023-04-12T21:30:55.208Z,100.00
2023-04-12T21:33:24.727Z,100.00
2023-04-12T21:35:54.331Z,100.00
2023-04-12T21:38:23.034Z,100.00
2023-04-12T21:40:52.114Z,100.00
2023-04-12T21:43:19.752Z,100.00
2023-04-12T21:45:47.419Z,100.00
2023-04-12T21:48:15.114Z,100.00
2023-04-12T21:50:42.752Z,100.00
2023-04-12T21:53:10.381Z,100.00
2023-04-12T21:55:38.170Z,100.00
2023-04-12T21:58:07.307Z,100.00
2023-04-12T22:00:34.953Z,100.00
2023-04-12T22:03:02.836Z,100.00
2023-04-12T22:05:30.732Z,100.00
2023-04-12T22:07:58.368Z,100.00
2023-04-12T22:10:26.040Z,100.00
2023-04-12T22:12:53.868Z,100.00
2023-04-12T22:15:23.078Z,100.00
2023-04-12T22:17:50.695Z,100.00
2023-04-12T22:20:18.623Z,100.00
2023-04-12T22:22:46.339Z,100.00
2023-04-12T22:25:15.366Z,100.00
2023-04-12T22:27:46.559Z,100.00
2023-04-12T22:30:16.209Z,100.00
2023-04-12T22:32:45.309Z,100.00
2023-04-12T22:35:12.982Z,100.00
2023-04-12T22:37:42.034Z,100.00
2023-04-12T22:40:13.510Z,100.00
2023-04-12T22:42:46.233Z,100.00
2023-04-12T22:45:14.969Z,100.00
2023-04-12T22:47:43.080Z,100.00
2023-04-12T22:50:12.960Z,100.00
2023-04-12T22:52:41.739Z,100.00
2023-04-12T22:55:13.285Z,100.00
2023-04-12T22:57:40.975Z,100.00
2023-04-12T23:00:15.683Z,100.00
2023-04-12T23:02:44.964Z,100.00
2023-04-12T23:05:14.233Z,100.00
2023-04-12T23:07:43.593Z,100.00
2023-04-12T23:10:12.054Z,100.00
2023-04-12T23:12:39.845Z,100.00
2023-04-12T23:15:08.961Z,100.00
2023-04-12T23:17:37.208Z,100.00
2023-04-12T23:20:10.161Z,100.00
2023-04-12T23:22:56.829Z,100.00
2023-04-12T23:25:38.818Z,100.00
2023-04-12T23:28:09.680Z,100.00
2023-04-12T23:30:37.576Z,100.00
2023-04-12T23:33:05.326Z,100.00
2023-04-12T23:35:36.819Z,100.00
2023-04-12T23:38:06.511Z,100.00
2023-04-12T23:40:34.604Z,100.00
2023-04-12T23:43:02.625Z,100.00
2023-04-12T23:45:30.721Z,100.00
2023-04-12T23:47:58.333Z,100.00
2023-04-12T23:50:26.598Z,100.00
2023-04-12T23:52:54.272Z,100.00
2023-04-12T23:55:23.281Z,100.00
2023-04-12T23:57:50.983Z,100.00
